sensor_id;sensor_type;location;lat;lon;timestamp;P1;durP1;ratioP1;P2;durP2;ratioP2
41293;SDS011;27037;52.010;4.446;2023-07-31T00:01:04;46.40;;;10.32;;
41293;SDS011;27037;52.010;4.446;2023-07-31T00:03:29;51.55;;;10.57;;
41293;SDS011;27037;52.010;4.446;2023-07-31T00:05:55;46.95;;;9.70;;
41293;SDS011;27037;52.010;4.446;2023-07-31T00:08:21;44.72;;;10.20;;
41293;SDS011;27037;52.010;4.446;2023-07-31T00:10:47;50.08;;;11.18;;
41293;SDS011;27037;52.010;4.446;2023-07-31T00:13:15;47.90;;;10.38;;
41293;SDS011;27037;52.010;4.446;2023-07-31T00:15:41;54.65;;;10.32;;
41293;SDS011;27037;52.010;4.446;2023-07-31T00:18:07;45.95;;;10.38;;
41293;SDS011;27037;52.010;4.446;2023-07-31T00:20:32;44.13;;;10.27;;
41293;SDS011;27037;52.010;4.446;2023-07-31T00:22:58;46.47;;;10.38;;
41293;SDS011;27037;52.010;4.446;2023-07-31T00:25:23;48.83;;;10.52;;
41293;SDS011;27037;52.010;4.446;2023-07-31T00:27:49;52.22;;;11.13;;
41293;SDS011;27037;52.010;4.446;2023-07-31T00:30:15;51.10;;;10.90;;
41293;SDS011;27037;52.010;4.446;2023-07-31T00:32:41;44.30;;;10.02;;
41293;SDS011;27037;52.010;4.446;2023-07-31T00:35:07;43.78;;;10.30;;
41293;SDS011;27037;52.010;4.446;2023-07-31T00:37:32;38.78;;;10.52;;
41293;SDS011;27037;52.010;4.446;2023-07-31T00:39:58;46.65;;;10.20;;
41293;SDS011;27037;52.010;4.446;2023-07-31T00:42:24;39.88;;;10.48;;
41293;SDS011;27037;52.010;4.446;2023-07-31T00:44:50;50.10;;;11.05;;
41293;SDS011;27037;52.010;4.446;2023-07-31T00:47:15;46.30;;;10.85;;
41293;SDS011;27037;52.010;4.446;2023-07-31T00:49:41;51.83;;;11.27;;
41293;SDS011;27037;52.010;4.446;2023-07-31T00:52:07;44.47;;;10.23;;
41293;SDS011;27037;52.010;4.446;2023-07-31T00:54:34;34.55;;;9.07;;
41293;SDS011;27037;52.010;4.446;2023-07-31T00:56:59;34.83;;;9.30;;
41293;SDS011;27037;52.010;4.446;2023-07-31T00:59:25;36.58;;;9.50;;
41293;SDS011;27037;52.010;4.446;2023-07-31T01:01:51;44.47;;;9.68;;
41293;SDS011;27037;52.010;4.446;2023-07-31T01:04:17;36.80;;;8.45;;
41293;SDS011;27037;52.010;4.446;2023-07-31T01:06:48;28.33;;;7.47;;
41293;SDS011;27037;52.010;4.446;2023-07-31T01:09:57;26.95;;;6.90;;
41293;SDS011;27037;52.010;4.446;2023-07-31T01:12:32;26.85;;;8.18;;
41293;SDS011;27037;52.010;4.446;2023-07-31T01:17:28;33.40;;;8.55;;
41293;SDS011;27037;52.010;4.446;2023-07-31T01:19:54;37.22;;;8.70;;
41293;SDS011;27037;52.010;4.446;2023-07-31T01:28:05;53.42;;;10.70;;
41293;SDS011;27037;52.010;4.446;2023-07-31T01:30:37;38.30;;;10.40;;
41293;SDS011;27037;52.010;4.446;2023-07-31T01:33:08;44.53;;;10.77;;
41293;SDS011;27037;52.010;4.446;2023-07-31T01:35:34;49.05;;;10.68;;
41293;SDS011;27037;52.010;4.446;2023-07-31T01:38:01;40.33;;;9.88;;
41293;SDS011;27037;52.010;4.446;2023-07-31T01:40:27;45.00;;;10.15;;
41293;SDS011;27037;52.010;4.446;2023-07-31T01:42:52;44.35;;;9.80;;
41293;SDS011;27037;52.010;4.446;2023-07-31T01:45:18;44.97;;;9.48;;
41293;SDS011;27037;52.010;4.446;2023-07-31T01:47:44;39.95;;;9.55;;
41293;SDS011;27037;52.010;4.446;2023-07-31T01:50:10;36.97;;;9.93;;
41293;SDS011;27037;52.010;4.446;2023-07-31T01:52:36;42.00;;;9.68;;
41293;SDS011;27037;52.010;4.446;2023-07-31T01:55:01;45.80;;;9.65;;
41293;SDS011;27037;52.010;4.446;2023-07-31T01:57:27;39.08;;;9.73;;
41293;SDS011;27037;52.010;4.446;2023-07-31T01:59:53;45.75;;;11.23;;
41293;SDS011;27037;52.010;4.446;2023-07-31T02:02:19;46.17;;;10.32;;
41293;SDS011;27037;52.010;4.446;2023-07-31T02:04:45;42.53;;;10.48;;
41293;SDS011;27037;52.010;4.446;2023-07-31T02:07:11;49.30;;;10.73;;
41293;SDS011;27037;52.010;4.446;2023-07-31T02:09:37;43.10;;;10.85;;
41293;SDS011;27037;52.010;4.446;2023-07-31T02:12:03;50.75;;;11.00;;
41293;SDS011;27037;52.010;4.446;2023-07-31T02:14:28;43.53;;;10.48;;
41293;SDS011;27037;52.010;4.446;2023-07-31T02:16:54;48.90;;;11.48;;
41293;SDS011;27037;52.010;4.446;2023-07-31T02:19:20;44.70;;;11.18;;
41293;SDS011;27037;52.010;4.446;2023-07-31T02:21:45;47.85;;;11.27;;
41293;SDS011;27037;52.010;4.446;2023-07-31T02:24:11;50.20;;;11.05;;
41293;SDS011;27037;52.010;4.446;2023-07-31T02:26:37;42.03;;;10.73;;
41293;SDS011;27037;52.010;4.446;2023-07-31T02:29:02;44.55;;;10.50;;
41293;SDS011;27037;52.010;4.446;2023-07-31T02:31:28;45.55;;;10.80;;
41293;SDS011;27037;52.010;4.446;2023-07-31T02:33:54;35.85;;;11.23;;
41293;SDS011;27037;52.010;4.446;2023-07-31T02:36:19;46.10;;;10.82;;
41293;SDS011;27037;52.010;4.446;2023-07-31T02:38:45;39.72;;;10.18;;
41293;SDS011;27037;52.010;4.446;2023-07-31T02:41:10;36.38;;;9.10;;
41293;SDS011;27037;52.010;4.446;2023-07-31T02:43:36;38.47;;;8.55;;
41293;SDS011;27037;52.010;4.446;2023-07-31T02:46:02;36.28;;;8.45;;
41293;SDS011;27037;52.010;4.446;2023-07-31T02:48:27;39.85;;;8.75;;
41293;SDS011;27037;52.010;4.446;2023-07-31T02:50:53;37.58;;;8.77;;
41293;SDS011;27037;52.010;4.446;2023-07-31T02:53:19;34.30;;;8.07;;
41293;SDS011;27037;52.010;4.446;2023-07-31T02:55:45;33.63;;;8.45;;
41293;SDS011;27037;52.010;4.446;2023-07-31T02:58:10;43.40;;;9.70;;
41293;SDS011;27037;52.010;4.446;2023-07-31T03:00:36;36.80;;;8.85;;
41293;SDS011;27037;52.010;4.446;2023-07-31T03:03:07;40.40;;;9.05;;
41293;SDS011;27037;52.010;4.446;2023-07-31T03:05:33;42.38;;;9.60;;
41293;SDS011;27037;52.010;4.446;2023-07-31T03:07:58;38.67;;;8.95;;
41293;SDS011;27037;52.010;4.446;2023-07-31T03:10:24;38.67;;;9.50;;
41293;SDS011;27037;52.010;4.446;2023-07-31T03:12:50;41.45;;;8.85;;
41293;SDS011;27037;52.010;4.446;2023-07-31T03:15:15;36.22;;;8.20;;
41293;SDS011;27037;52.010;4.446;2023-07-31T03:17:41;37.53;;;9.38;;
41293;SDS011;27037;52.010;4.446;2023-07-31T03:20:06;37.22;;;9.10;;
41293;SDS011;27037;52.010;4.446;2023-07-31T03:22:33;39.08;;;9.13;;
41293;SDS011;27037;52.010;4.446;2023-07-31T03:25:00;36.05;;;9.02;;
41293;SDS011;27037;52.010;4.446;2023-07-31T03:27:26;41.08;;;9.15;;
41293;SDS011;27037;52.010;4.446;2023-07-31T03:29:52;37.13;;;8.70;;
41293;SDS011;27037;52.010;4.446;2023-07-31T03:32:17;34.15;;;8.48;;
41293;SDS011;27037;52.010;4.446;2023-07-31T03:34:43;34.15;;;8.30;;
41293;SDS011;27037;52.010;4.446;2023-07-31T03:37:09;33.38;;;9.25;;
41293;SDS011;27037;52.010;4.446;2023-07-31T03:39:34;37.25;;;8.38;;
41293;SDS011;27037;52.010;4.446;2023-07-31T03:42:00;36.88;;;8.20;;
41293;SDS011;27037;52.010;4.446;2023-07-31T03:44:26;37.30;;;8.75;;
41293;SDS011;27037;52.010;4.446;2023-07-31T03:46:51;27.63;;;7.25;;
41293;SDS011;27037;52.010;4.446;2023-07-31T03:49:17;22.58;;;6.80;;
41293;SDS011;27037;52.010;4.446;2023-07-31T03:51:43;31.52;;;7.20;;
41293;SDS011;27037;52.010;4.446;2023-07-31T03:54:08;28.15;;;7.07;;
41293;SDS011;27037;52.010;4.446;2023-07-31T03:56:34;29.80;;;7.10;;
41293;SDS011;27037;52.010;4.446;2023-07-31T03:58:59;23.30;;;5.82;;
41293;SDS011;27037;52.010;4.446;2023-07-31T04:01:25;20.42;;;5.50;;
41293;SDS011;27037;52.010;4.446;2023-07-31T04:03:51;17.60;;;5.03;;
41293;SDS011;27037;52.010;4.446;2023-07-31T04:06:17;16.25;;;4.70;;
41293;SDS011;27037;52.010;4.446;2023-07-31T04:08:43;21.63;;;4.82;;
41293;SDS011;27037;52.010;4.446;2023-07-31T04:11:10;10.80;;;3.63;;
41293;SDS011;27037;52.010;4.446;2023-07-31T04:13:36;12.27;;;4.18;;
41293;SDS011;27037;52.010;4.446;2023-07-31T04:16:02;12.55;;;3.95;;
41293;SDS011;27037;52.010;4.446;2023-07-31T04:18:28;12.43;;;3.83;;
41293;SDS011;27037;52.010;4.446;2023-07-31T04:20:56;10.23;;;3.85;;
41293;SDS011;27037;52.010;4.446;2023-07-31T04:23:23;8.88;;;3.20;;
41293;SDS011;27037;52.010;4.446;2023-07-31T04:25:49;11.02;;;3.35;;
41293;SDS011;27037;52.010;4.446;2023-07-31T04:28:14;11.70;;;3.72;;
41293;SDS011;27037;52.010;4.446;2023-07-31T04:30:40;14.77;;;3.80;;
41293;SDS011;27037;52.010;4.446;2023-07-31T04:33:06;11.68;;;3.85;;
41293;SDS011;27037;52.010;4.446;2023-07-31T04:35:31;8.77;;;3.50;;
41293;SDS011;27037;52.010;4.446;2023-07-31T04:37:57;9.13;;;3.75;;
41293;SDS011;27037;52.010;4.446;2023-07-31T04:40:23;6.75;;;3.30;;
41293;SDS011;27037;52.010;4.446;2023-07-31T04:42:48;7.55;;;3.65;;
41293;SDS011;27037;52.010;4.446;2023-07-31T04:45:14;9.63;;;4.18;;
41293;SDS011;27037;52.010;4.446;2023-07-31T04:47:40;10.07;;;4.40;;
41293;SDS011;27037;52.010;4.446;2023-07-31T04:50:05;10.02;;;4.25;;
41293;SDS011;27037;52.010;4.446;2023-07-31T04:52:32;13.10;;;5.15;;
41293;SDS011;27037;52.010;4.446;2023-07-31T04:54:57;11.35;;;5.15;;
41293;SDS011;27037;52.010;4.446;2023-07-31T04:57:23;14.55;;;5.43;;
41293;SDS011;27037;52.010;4.446;2023-07-31T04:59:48;11.70;;;5.35;;
41293;SDS011;27037;52.010;4.446;2023-07-31T05:02:14;15.75;;;5.78;;
41293;SDS011;27037;52.010;4.446;2023-07-31T05:04:40;13.35;;;5.60;;
41293;SDS011;27037;52.010;4.446;2023-07-31T05:07:06;13.63;;;5.40;;
41293;SDS011;27037;52.010;4.446;2023-07-31T05:09:31;12.52;;;5.40;;
41293;SDS011;27037;52.010;4.446;2023-07-31T05:11:57;11.65;;;5.03;;
41293;SDS011;27037;52.010;4.446;2023-07-31T05:14:22;12.82;;;5.50;;
41293;SDS011;27037;52.010;4.446;2023-07-31T05:16:48;12.45;;;4.80;;
41293;SDS011;27037;52.010;4.446;2023-07-31T05:19:14;11.80;;;4.68;;
41293;SDS011;27037;52.010;4.446;2023-07-31T05:21:39;11.10;;;4.43;;
41293;SDS011;27037;52.010;4.446;2023-07-31T05:24:06;10.07;;;4.25;;
41293;SDS011;27037;52.010;4.446;2023-07-31T05:26:32;10.35;;;4.47;;
41293;SDS011;27037;52.010;4.446;2023-07-31T05:28:57;10.32;;;4.50;;
41293;SDS011;27037;52.010;4.446;2023-07-31T05:31:23;11.10;;;4.63;;
41293;SDS011;27037;52.010;4.446;2023-07-31T05:33:49;11.25;;;4.38;;
41293;SDS011;27037;52.010;4.446;2023-07-31T05:36:15;11.88;;;4.95;;
41293;SDS011;27037;52.010;4.446;2023-07-31T05:38:41;9.95;;;4.80;;
41293;SDS011;27037;52.010;4.446;2023-07-31T05:41:09;9.80;;;4.18;;
41293;SDS011;27037;52.010;4.446;2023-07-31T05:43:36;6.18;;;3.80;;
41293;SDS011;27037;52.010;4.446;2023-07-31T05:46:01;10.02;;;4.78;;
41293;SDS011;27037;52.010;4.446;2023-07-31T05:48:27;7.43;;;4.07;;
41293;SDS011;27037;52.010;4.446;2023-07-31T05:50:52;10.55;;;4.70;;
41293;SDS011;27037;52.010;4.446;2023-07-31T05:53:18;7.30;;;3.92;;
41293;SDS011;27037;52.010;4.446;2023-07-31T05:55:44;7.15;;;3.25;;
41293;SDS011;27037;52.010;4.446;2023-07-31T05:58:09;6.65;;;3.50;;
41293;SDS011;27037;52.010;4.446;2023-07-31T06:00:35;6.30;;;3.28;;
41293;SDS011;27037;52.010;4.446;2023-07-31T06:03:01;6.93;;;3.60;;
41293;SDS011;27037;52.010;4.446;2023-07-31T06:05:27;5.75;;;3.13;;
41293;SDS011;27037;52.010;4.446;2023-07-31T06:07:54;4.57;;;2.90;;
41293;SDS011;27037;52.010;4.446;2023-07-31T06:10:20;8.60;;;3.00;;
41293;SDS011;27037;52.010;4.446;2023-07-31T06:12:46;4.95;;;2.60;;
41293;SDS011;27037;52.010;4.446;2023-07-31T06:15:12;6.78;;;2.67;;
41293;SDS011;27037;52.010;4.446;2023-07-31T06:17:37;3.00;;;2.20;;
41293;SDS011;27037;52.010;4.446;2023-07-31T06:20:03;4.75;;;2.30;;
41293;SDS011;27037;52.010;4.446;2023-07-31T06:22:32;7.07;;;2.35;;
41293;SDS011;27037;52.010;4.446;2023-07-31T06:24:58;3.58;;;1.75;;
41293;SDS011;27037;52.010;4.446;2023-07-31T06:27:23;3.35;;;1.75;;
41293;SDS011;27037;52.010;4.446;2023-07-31T06:29:49;3.78;;;2.03;;
41293;SDS011;27037;52.010;4.446;2023-07-31T06:32:15;4.05;;;2.70;;
41293;SDS011;27037;52.010;4.446;2023-07-31T06:34:40;4.70;;;2.67;;
41293;SDS011;27037;52.010;4.446;2023-07-31T06:37:06;4.15;;;2.67;;
41293;SDS011;27037;52.010;4.446;2023-07-31T06:39:32;4.28;;;2.50;;
41293;SDS011;27037;52.010;4.446;2023-07-31T06:41:57;3.90;;;2.15;;
41293;SDS011;27037;52.010;4.446;2023-07-31T06:44:23;3.78;;;2.33;;
41293;SDS011;27037;52.010;4.446;2023-07-31T06:46:48;3.53;;;2.13;;
41293;SDS011;27037;52.010;4.446;2023-07-31T06:49:14;3.35;;;1.88;;
41293;SDS011;27037;52.010;4.446;2023-07-31T06:51:43;2.58;;;1.90;;
41293;SDS011;27037;52.010;4.446;2023-07-31T06:54:09;1.95;;;1.65;;
41293;SDS011;27037;52.010;4.446;2023-07-31T06:56:34;3.70;;;1.58;;
41293;SDS011;27037;52.010;4.446;2023-07-31T06:59:00;2.58;;;1.48;;
41293;SDS011;27037;52.010;4.446;2023-07-31T07:01:26;2.35;;;1.40;;
41293;SDS011;27037;52.010;4.446;2023-07-31T07:03:53;2.88;;;1.50;;
41293;SDS011;27037;52.010;4.446;2023-07-31T07:06:19;2.78;;;1.50;;
41293;SDS011;27037;52.010;4.446;2023-07-31T07:08:44;3.60;;;1.45;;
41293;SDS011;27037;52.010;4.446;2023-07-31T07:11:10;2.30;;;1.27;;
41293;SDS011;27037;52.010;4.446;2023-07-31T07:13:36;3.13;;;1.17;;
41293;SDS011;27037;52.010;4.446;2023-07-31T07:16:02;1.98;;;1.10;;
41293;SDS011;27037;52.010;4.446;2023-07-31T07:18:27;2.55;;;1.20;;
41293;SDS011;27037;52.010;4.446;2023-07-31T07:20:53;1.92;;;1.23;;
41293;SDS011;27037;52.010;4.446;2023-07-31T07:23:20;2.35;;;1.20;;
41293;SDS011;27037;52.010;4.446;2023-07-31T07:25:46;2.60;;;1.20;;
41293;SDS011;27037;52.010;4.446;2023-07-31T07:28:12;2.25;;;1.10;;
41293;SDS011;27037;52.010;4.446;2023-07-31T07:30:38;1.50;;;1.10;;
41293;SDS011;27037;52.010;4.446;2023-07-31T07:33:04;2.63;;;1.30;;
41293;SDS011;27037;52.010;4.446;2023-07-31T07:35:33;2.05;;;1.23;;
41293;SDS011;27037;52.010;4.446;2023-07-31T07:37:59;2.05;;;1.10;;
41293;SDS011;27037;52.010;4.446;2023-07-31T07:40:27;1.75;;;1.10;;
41293;SDS011;27037;52.010;4.446;2023-07-31T07:42:52;2.45;;;1.20;;
41293;SDS011;27037;52.010;4.446;2023-07-31T07:45:18;2.70;;;1.15;;
41293;SDS011;27037;52.010;4.446;2023-07-31T07:47:44;2.53;;;0.90;;
41293;SDS011;27037;52.010;4.446;2023-07-31T07:50:09;3.35;;;1.10;;
41293;SDS011;27037;52.010;4.446;2023-07-31T07:52:35;1.42;;;1.10;;
41293;SDS011;27037;52.010;4.446;2023-07-31T07:55:01;1.50;;;1.02;;
41293;SDS011;27037;52.010;4.446;2023-07-31T07:57:28;3.13;;;1.00;;
41293;SDS011;27037;52.010;4.446;2023-07-31T07:59:54;2.35;;;0.90;;
41293;SDS011;27037;52.010;4.446;2023-07-31T08:02:20;0.80;;;0.80;;
41293;SDS011;27037;52.010;4.446;2023-07-31T08:04:46;2.75;;;0.75;;
41293;SDS011;27037;52.010;4.446;2023-07-31T08:07:12;1.70;;;1.00;;
41293;SDS011;27037;52.010;4.446;2023-07-31T08:09:38;2.30;;;1.10;;
41293;SDS011;27037;52.010;4.446;2023-07-31T08:12:04;3.75;;;1.35;;
41293;SDS011;27037;52.010;4.446;2023-07-31T08:14:30;5.07;;;1.67;;
41293;SDS011;27037;52.010;4.446;2023-07-31T08:16:56;5.20;;;1.80;;
41293;SDS011;27037;52.010;4.446;2023-07-31T08:19:22;11.18;;;3.03;;
41293;SDS011;27037;52.010;4.446;2023-07-31T08:21:47;15.85;;;3.20;;
41293;SDS011;27037;52.010;4.446;2023-07-31T08:24:13;11.43;;;2.88;;
41293;SDS011;27037;52.010;4.446;2023-07-31T08:26:39;10.35;;;2.90;;
41293;SDS011;27037;52.010;4.446;2023-07-31T08:29:04;6.47;;;2.53;;
41293;SDS011;27037;52.010;4.446;2023-07-31T08:31:30;6.32;;;2.30;;
41293;SDS011;27037;52.010;4.446;2023-07-31T08:33:56;6.45;;;2.33;;
41293;SDS011;27037;52.010;4.446;2023-07-31T08:36:21;9.13;;;2.40;;
41293;SDS011;27037;52.010;4.446;2023-07-31T08:38:47;9.23;;;2.45;;
41293;SDS011;27037;52.010;4.446;2023-07-31T08:41:13;12.82;;;2.58;;
41293;SDS011;27037;52.010;4.446;2023-07-31T08:43:39;15.38;;;3.10;;
41293;SDS011;27037;52.010;4.446;2023-07-31T08:46:05;13.65;;;2.90;;
41293;SDS011;27037;52.010;4.446;2023-07-31T08:48:31;6.88;;;2.10;;
41293;SDS011;27037;52.010;4.446;2023-07-31T08:50:58;13.73;;;2.60;;
41293;SDS011;27037;52.010;4.446;2023-07-31T08:53:23;14.40;;;3.28;;
41293;SDS011;27037;52.010;4.446;2023-07-31T08:55:50;14.15;;;2.80;;
41293;SDS011;27037;52.010;4.446;2023-07-31T08:58:18;15.77;;;3.08;;
41293;SDS011;27037;52.010;4.446;2023-07-31T09:00:46;16.63;;;3.72;;
41293;SDS011;27037;52.010;4.446;2023-07-31T09:03:15;16.67;;;3.83;;
41293;SDS011;27037;52.010;4.446;2023-07-31T09:05:43;17.55;;;4.15;;
41293;SDS011;27037;52.010;4.446;2023-07-31T09:08:12;20.00;;;3.72;;
41293;SDS011;27037;52.010;4.446;2023-07-31T09:10:42;23.55;;;3.95;;
41293;SDS011;27037;52.010;4.446;2023-07-31T09:13:10;22.23;;;4.20;;
41293;SDS011;27037;52.010;4.446;2023-07-31T09:15:37;18.45;;;4.18;;
41293;SDS011;27037;52.010;4.446;2023-07-31T09:18:04;15.02;;;3.42;;
41293;SDS011;27037;52.010;4.446;2023-07-31T09:20:30;20.55;;;3.60;;
41293;SDS011;27037;52.010;4.446;2023-07-31T09:23:02;16.15;;;3.22;;
41293;SDS011;27037;52.010;4.446;2023-07-31T09:25:37;16.90;;;3.17;;
41293;SDS011;27037;52.010;4.446;2023-07-31T09:28:05;16.95;;;3.10;;
41293;SDS011;27037;52.010;4.446;2023-07-31T09:30:51;17.60;;;3.20;;
41293;SDS011;27037;52.010;4.446;2023-07-31T09:33:19;11.75;;;2.90;;
41293;SDS011;27037;52.010;4.446;2023-07-31T09:35:46;9.68;;;2.55;;
41293;SDS011;27037;52.010;4.446;2023-07-31T09:38:13;8.40;;;2.70;;
41293;SDS011;27037;52.010;4.446;2023-07-31T09:40:41;6.07;;;2.45;;
41293;SDS011;27037;52.010;4.446;2023-07-31T09:43:08;7.20;;;2.65;;
41293;SDS011;27037;52.010;4.446;2023-07-31T09:45:36;9.60;;;2.30;;
41293;SDS011;27037;52.010;4.446;2023-07-31T09:48:03;6.90;;;2.38;;
41293;SDS011;27037;52.010;4.446;2023-07-31T09:50:36;10.02;;;2.45;;
41293;SDS011;27037;52.010;4.446;2023-07-31T09:53:03;10.15;;;2.20;;
41293;SDS011;27037;52.010;4.446;2023-07-31T09:55:30;13.35;;;2.53;;
41293;SDS011;27037;52.010;4.446;2023-07-31T09:57:57;10.25;;;2.70;;
41293;SDS011;27037;52.010;4.446;2023-07-31T10:00:22;9.93;;;2.60;;
41293;SDS011;27037;52.010;4.446;2023-07-31T10:02:51;9.95;;;2.88;;
41293;SDS011;27037;52.010;4.446;2023-07-31T10:05:19;8.13;;;2.63;;
41293;SDS011;27037;52.010;4.446;2023-07-31T10:07:49;7.38;;;2.45;;
41293;SDS011;27037;52.010;4.446;2023-07-31T10:10:19;10.18;;;2.83;;
41293;SDS011;27037;52.010;4.446;2023-07-31T10:12:46;14.73;;;2.83;;
41293;SDS011;27037;52.010;4.446;2023-07-31T10:15:13;10.32;;;2.83;;
41293;SDS011;27037;52.010;4.446;2023-07-31T10:17:40;15.73;;;3.55;;
41293;SDS011;27037;52.010;4.446;2023-07-31T10:20:06;16.83;;;3.25;;
41293;SDS011;27037;52.010;4.446;2023-07-31T10:22:33;15.32;;;3.67;;
41293;SDS011;27037;52.010;4.446;2023-07-31T10:24:59;23.15;;;4.15;;
41293;SDS011;27037;52.010;4.446;2023-07-31T10:27:26;15.05;;;3.42;;
41293;SDS011;27037;52.010;4.446;2023-07-31T10:29:52;23.23;;;3.92;;
41293;SDS011;27037;52.010;4.446;2023-07-31T10:32:20;20.10;;;4.03;;
41293;SDS011;27037;52.010;4.446;2023-07-31T10:34:47;22.63;;;3.90;;
41293;SDS011;27037;52.010;4.446;2023-07-31T10:37:20;18.95;;;4.28;;
41293;SDS011;27037;52.010;4.446;2023-07-31T10:39:58;14.95;;;3.85;;
41293;SDS011;27037;52.010;4.446;2023-07-31T10:42:27;17.92;;;3.88;;
41293;SDS011;27037;52.010;4.446;2023-07-31T10:44:59;21.40;;;4.13;;
41293;SDS011;27037;52.010;4.446;2023-07-31T10:47:26;14.80;;;3.63;;
41293;SDS011;27037;52.010;4.446;2023-07-31T10:49:52;17.10;;;3.83;;
41293;SDS011;27037;52.010;4.446;2023-07-31T10:52:21;15.90;;;3.60;;
41293;SDS011;27037;52.010;4.446;2023-07-31T10:54:48;16.25;;;3.63;;
41293;SDS011;27037;52.010;4.446;2023-07-31T10:57:18;20.02;;;3.40;;
41293;SDS011;27037;52.010;4.446;2023-07-31T10:59:45;14.98;;;3.20;;
41293;SDS011;27037;52.010;4.446;2023-07-31T11:02:23;15.00;;;3.13;;
41293;SDS011;27037;52.010;4.446;2023-07-31T11:05:07;13.20;;;3.05;;
41293;SDS011;27037;52.010;4.446;2023-07-31T11:07:47;14.90;;;3.22;;
41293;SDS011;27037;52.010;4.446;2023-07-31T11:10:16;15.30;;;3.20;;
41293;SDS011;27037;52.010;4.446;2023-07-31T11:12:47;14.38;;;3.20;;
41293;SDS011;27037;52.010;4.446;2023-07-31T11:15:13;12.80;;;3.13;;
41293;SDS011;27037;52.010;4.446;2023-07-31T11:17:39;13.82;;;2.95;;
41293;SDS011;27037;52.010;4.446;2023-07-31T11:20:05;12.55;;;2.70;;
41293;SDS011;27037;52.010;4.446;2023-07-31T11:22:32;14.75;;;3.10;;
41293;SDS011;27037;52.010;4.446;2023-07-31T11:25:01;11.70;;;3.10;;
41293;SDS011;27037;52.010;4.446;2023-07-31T11:27:30;20.30;;;3.00;;
41293;SDS011;27037;52.010;4.446;2023-07-31T11:30:02;11.13;;;2.40;;
41293;SDS011;27037;52.010;4.446;2023-07-31T11:32:28;12.57;;;2.85;;
41293;SDS011;27037;52.010;4.446;2023-07-31T11:34:54;14.70;;;2.75;;
41293;SDS011;27037;52.010;4.446;2023-07-31T11:37:20;10.57;;;2.70;;
41293;SDS011;27037;52.010;4.446;2023-07-31T11:40:01;13.55;;;3.05;;
41293;SDS011;27037;52.010;4.446;2023-07-31T11:42:27;12.27;;;2.72;;
41293;SDS011;27037;52.010;4.446;2023-07-31T11:44:52;11.63;;;3.05;;
41293;SDS011;27037;52.010;4.446;2023-07-31T11:47:18;12.15;;;3.15;;
41293;SDS011;27037;52.010;4.446;2023-07-31T11:49:45;10.98;;;2.70;;
41293;SDS011;27037;52.010;4.446;2023-07-31T11:52:11;9.30;;;2.70;;
41293;SDS011;27037;52.010;4.446;2023-07-31T11:54:37;8.60;;;2.50;;
41293;SDS011;27037;52.010;4.446;2023-07-31T11:57:05;8.77;;;2.40;;
41293;SDS011;27037;52.010;4.446;2023-07-31T11:59:31;9.88;;;2.15;;
41293;SDS011;27037;52.010;4.446;2023-07-31T12:01:57;12.70;;;2.20;;
41293;SDS011;27037;52.010;4.446;2023-07-31T12:04:23;10.88;;;2.20;;
41293;SDS011;27037;52.010;4.446;2023-07-31T12:06:50;8.75;;;2.45;;
41293;SDS011;27037;52.010;4.446;2023-07-31T12:09:18;11.80;;;2.63;;
41293;SDS011;27037;52.010;4.446;2023-07-31T12:11:44;13.93;;;2.65;;
41293;SDS011;27037;52.010;4.446;2023-07-31T12:14:28;8.75;;;2.78;;
41293;SDS011;27037;52.010;4.446;2023-07-31T12:16:54;8.45;;;2.70;;
41293;SDS011;27037;52.010;4.446;2023-07-31T12:19:24;9.50;;;2.45;;
41293;SDS011;27037;52.010;4.446;2023-07-31T12:21:54;8.85;;;2.75;;
41293;SDS011;27037;52.010;4.446;2023-07-31T12:24:27;9.15;;;2.65;;
41293;SDS011;27037;52.010;4.446;2023-07-31T12:26:53;8.73;;;2.33;;
41293;SDS011;27037;52.010;4.446;2023-07-31T12:29:19;11.50;;;3.03;;
41293;SDS011;27037;52.010;4.446;2023-07-31T12:31:45;9.73;;;2.60;;
41293;SDS011;27037;52.010;4.446;2023-07-31T12:34:15;13.02;;;3.47;;
41293;SDS011;27037;52.010;4.446;2023-07-31T12:36:42;10.85;;;2.95;;
41293;SDS011;27037;52.010;4.446;2023-07-31T12:39:08;8.60;;;3.10;;
41293;SDS011;27037;52.010;4.446;2023-07-31T12:41:33;9.80;;;3.10;;
41293;SDS011;27037;52.010;4.446;2023-07-31T12:43:59;6.68;;;2.38;;
41293;SDS011;27037;52.010;4.446;2023-07-31T12:46:25;7.10;;;2.17;;
41293;SDS011;27037;52.010;4.446;2023-07-31T12:48:50;7.88;;;2.08;;
41293;SDS011;27037;52.010;4.446;2023-07-31T12:51:16;10.43;;;2.20;;
41293;SDS011;27037;52.010;4.446;2023-07-31T12:53:42;4.15;;;2.35;;
41293;SDS011;27037;52.010;4.446;2023-07-31T12:56:07;9.73;;;2.35;;
41293;SDS011;27037;52.010;4.446;2023-07-31T12:58:33;6.35;;;2.13;;
41293;SDS011;27037;52.010;4.446;2023-07-31T13:00:58;4.45;;;2.10;;
41293;SDS011;27037;52.010;4.446;2023-07-31T13:03:24;2.65;;;2.08;;
41293;SDS011;27037;52.010;4.446;2023-07-31T13:05:50;5.05;;;2.13;;
41293;SDS011;27037;52.010;4.446;2023-07-31T13:08:17;5.32;;;2.58;;
41293;SDS011;27037;52.010;4.446;2023-07-31T13:10:43;4.63;;;2.47;;
41293;SDS011;27037;52.010;4.446;2023-07-31T13:13:09;6.40;;;2.80;;
41293;SDS011;27037;52.010;4.446;2023-07-31T13:15:35;4.03;;;2.63;;
41293;SDS011;27037;52.010;4.446;2023-07-31T13:18:01;4.13;;;2.25;;
41293;SDS011;27037;52.010;4.446;2023-07-31T13:20:26;4.30;;;1.90;;
41293;SDS011;27037;52.010;4.446;2023-07-31T13:22:52;5.35;;;2.00;;
41293;SDS011;27037;52.010;4.446;2023-07-31T13:25:18;6.60;;;2.47;;
41293;SDS011;27037;52.010;4.446;2023-07-31T13:27:43;5.20;;;2.00;;
41293;SDS011;27037;52.010;4.446;2023-07-31T13:30:09;4.15;;;2.20;;
41293;SDS011;27037;52.010;4.446;2023-07-31T13:32:35;3.63;;;1.42;;
41293;SDS011;27037;52.010;4.446;2023-07-31T13:35:04;5.97;;;1.88;;
41293;SDS011;27037;52.010;4.446;2023-07-31T13:37:33;3.25;;;1.40;;
41293;SDS011;27037;52.010;4.446;2023-07-31T13:39:59;4.93;;;1.52;;
41293;SDS011;27037;52.010;4.446;2023-07-31T13:42:25;1.70;;;1.08;;
41293;SDS011;27037;52.010;4.446;2023-07-31T13:44:51;3.90;;;1.10;;
41293;SDS011;27037;52.010;4.446;2023-07-31T13:47:17;1.80;;;1.13;;
41293;SDS011;27037;52.010;4.446;2023-07-31T13:49:43;1.42;;;1.08;;
41293;SDS011;27037;52.010;4.446;2023-07-31T13:52:08;1.85;;;1.00;;
41293;SDS011;27037;52.010;4.446;2023-07-31T13:54:34;2.22;;;1.00;;
41293;SDS011;27037;52.010;4.446;2023-07-31T13:57:00;1.65;;;0.98;;
41293;SDS011;27037;52.010;4.446;2023-07-31T13:59:27;1.27;;;0.82;;
41293;SDS011;27037;52.010;4.446;2023-07-31T14:01:52;1.10;;;1.00;;
41293;SDS011;27037;52.010;4.446;2023-07-31T14:04:18;2.70;;;0.93;;
41293;SDS011;27037;52.010;4.446;2023-07-31T14:06:44;0.90;;;0.80;;
41293;SDS011;27037;52.010;4.446;2023-07-31T14:09:09;1.63;;;1.20;;
41293;SDS011;27037;52.010;4.446;2023-07-31T14:11:35;1.83;;;0.90;;
41293;SDS011;27037;52.010;4.446;2023-07-31T14:14:01;2.35;;;1.20;;
41293;SDS011;27037;52.010;4.446;2023-07-31T14:16:27;1.65;;;1.00;;
41293;SDS011;27037;52.010;4.446;2023-07-31T14:18:53;1.08;;;0.95;;
41293;SDS011;27037;52.010;4.446;2023-07-31T14:21:19;1.88;;;1.00;;
41293;SDS011;27037;52.010;4.446;2023-07-31T14:23:45;2.85;;;1.13;;
41293;SDS011;27037;52.010;4.446;2023-07-31T14:26:11;1.55;;;1.00;;
41293;SDS011;27037;52.010;4.446;2023-07-31T14:28:37;1.65;;;0.82;;
41293;SDS011;27037;52.010;4.446;2023-07-31T14:31:03;2.25;;;1.10;;
41293;SDS011;27037;52.010;4.446;2023-07-31T14:33:28;2.70;;;1.00;;
41293;SDS011;27037;52.010;4.446;2023-07-31T14:35:54;3.17;;;0.95;;
41293;SDS011;27037;52.010;4.446;2023-07-31T14:38:20;2.95;;;0.80;;
41293;SDS011;27037;52.010;4.446;2023-07-31T14:40:45;1.70;;;1.00;;
41293;SDS011;27037;52.010;4.446;2023-07-31T14:43:11;1.55;;;1.00;;